SLV004 ENGM-EDDF
Flight info
| Callsign | SLV004 |
|---|---|
| Flight time | 1h 38m |
| Altitude | 33000 |
| Route | VIPPA DCT RAXLU DCT RIMET T157 KERAX KERAX5D |
| Aircraft | B77L/H-SDE1E2E3FGHIJ2J3J4J5M1RWXY/LB1D1 |
Departure
| Time | 2026-05-08 08:09 |
|---|---|
| Airport | Oslo-Gardermoen International Airport (ENGM) |
Arrival
| Time | 2026-05-08 09:47 |
|---|---|
| Airport | Frankfurt Main Airport (EDDF) |
| Time | Latitude | Longitude | Altitude | Speed | Heading |
|---|---|---|---|---|---|
| 2026-05-08 07:33 | 60.19131 | 11.10702 | 686 ft | 0 kts | 196° |
| 2026-05-08 07:57 | 60.19140 | 11.10708 | 687 ft | 3 kts | 196° |
| 2026-05-08 07:58 | 60.19164 | 11.10721 | 680 ft | 3 kts | 196° |
| 2026-05-08 07:58 | 60.19185 | 11.10734 | 689 ft | 1 kts | 196° |
| 2026-05-08 08:01 | 60.19184 | 11.10734 | 689 ft | 1 kts | 192° |
| 2026-05-08 08:01 | 60.19174 | 11.10746 | 682 ft | 2 kts | 143° |
| 2026-05-08 08:01 | 60.19168 | 11.10772 | 681 ft | 2 kts | 107° |
| 2026-05-08 08:02 | 60.19168 | 11.10812 | 688 ft | 3 kts | 88° |
| 2026-05-08 08:02 | 60.19169 | 11.10855 | 681 ft | 3 kts | 88° |
| 2026-05-08 08:02 | 60.19169 | 11.10897 | 689 ft | 3 kts | 92° |
| 2026-05-08 08:02 | 60.19167 | 11.10939 | 689 ft | 3 kts | 97° |
| 2026-05-08 08:03 | 60.19160 | 11.10994 | 686 ft | 5 kts | 107° |
| 2026-05-08 08:03 | 60.19151 | 11.11073 | 682 ft | 6 kts | 91° |
| 2026-05-08 08:03 | 60.19189 | 11.11148 | 682 ft | 11 kts | 17° |
| 2026-05-08 08:03 | 60.19273 | 11.11196 | 686 ft | 13 kts | 15° |
| 2026-05-08 08:04 | 60.19354 | 11.11243 | 680 ft | 11 kts | 16° |
| 2026-05-08 08:04 | 60.19431 | 11.11287 | 684 ft | 12 kts | 16° |
| 2026-05-08 08:04 | 60.19512 | 11.11334 | 680 ft | 12 kts | 16° |
| 2026-05-08 08:04 | 60.19592 | 11.11381 | 683 ft | 11 kts | 16° |
| 2026-05-08 08:05 | 60.19657 | 11.11419 | 680 ft | 9 kts | 16° |
| 2026-05-08 08:05 | 60.19710 | 11.11449 | 687 ft | 7 kts | 16° |
| 2026-05-08 08:05 | 60.19755 | 11.11475 | 681 ft | 7 kts | 16° |
| 2026-05-08 08:05 | 60.19804 | 11.11503 | 685 ft | 9 kts | 16° |
| 2026-05-08 08:06 | 60.19869 | 11.11540 | 682 ft | 10 kts | 16° |
| 2026-05-08 08:06 | 60.19941 | 11.11581 | 683 ft | 11 kts | 16° |
| 2026-05-08 08:06 | 60.20018 | 11.11627 | 684 ft | 12 kts | 16° |
| 2026-05-08 08:06 | 60.20095 | 11.11671 | 686 ft | 11 kts | 16° |
| 2026-05-08 08:07 | 60.20155 | 11.11729 | 691 ft | 9 kts | 50° |
| 2026-05-08 08:07 | 60.20164 | 11.11858 | 690 ft | 10 kts | 100° |
| 2026-05-08 08:07 | 60.20147 | 11.11993 | 692 ft | 10 kts | 105° |
| 2026-05-08 08:07 | 60.20127 | 11.12127 | 690 ft | 10 kts | 106° |
| 2026-05-08 08:08 | 60.20093 | 11.12215 | 694 ft | 8 kts | 166° |
| 2026-05-08 08:08 | 60.20033 | 11.12197 | 691 ft | 9 kts | 194° |
| 2026-05-08 08:08 | 60.19919 | 11.12133 | 685 ft | 31 kts | 196° |
| 2026-05-08 08:08 | 60.19528 | 11.11906 | 682 ft | 93 kts | 196° |
| 2026-05-08 08:09 | 60.18686 | 11.11420 | 683 ft | 156 kts | 195° |
| 2026-05-08 08:09 | 60.17547 | 11.10763 | 1042 ft | 172 kts | 195° |
| 2026-05-08 08:09 | 60.16390 | 11.10089 | 1732 ft | 174 kts | 195° |
| 2026-05-08 08:09 | 60.15236 | 11.09431 | 2519 ft | 172 kts | 195° |
| 2026-05-08 08:10 | 60.14033 | 11.08759 | 2889 ft | 190 kts | 196° |
| 2026-05-08 08:10 | 60.12676 | 11.08099 | 3128 ft | 214 kts | 189° |
| 2026-05-08 08:10 | 60.11107 | 11.07740 | 3463 ft | 236 kts | 187° |
| 2026-05-08 08:10 | 60.09442 | 11.07411 | 4290 ft | 244 kts | 187° |
| 2026-05-08 08:11 | 60.07737 | 11.07051 | 5243 ft | 248 kts | 188° |
| 2026-05-08 08:11 | 60.06036 | 11.06455 | 6112 ft | 251 kts | 198° |
| 2026-05-08 08:11 | 60.04379 | 11.05255 | 6983 ft | 255 kts | 202° |
| 2026-05-08 08:11 | 60.02726 | 11.03919 | 7910 ft | 257 kts | 202° |
| 2026-05-08 08:12 | 60.01058 | 11.02564 | 8834 ft | 260 kts | 202° |
| 2026-05-08 08:12 | 59.99372 | 11.01203 | 9729 ft | 263 kts | 201° |
| 2026-05-08 08:12 | 59.97657 | 10.99841 | 10555 ft | 268 kts | 201° |
| 2026-05-08 08:12 | 59.95865 | 10.98424 | 10974 ft | 289 kts | 201° |
| 2026-05-08 08:13 | 59.93906 | 10.96883 | 11183 ft | 315 kts | 201° |
| 2026-05-08 08:13 | 59.91778 | 10.95224 | 11420 ft | 341 kts | 201° |
| 2026-05-08 08:13 | 59.89523 | 10.93480 | 12033 ft | 353 kts | 201° |
| 2026-05-08 08:13 | 59.87230 | 10.91719 | 12780 ft | 361 kts | 201° |
| 2026-05-08 08:14 | 59.84833 | 10.89889 | 13656 ft | 367 kts | 201° |
| 2026-05-08 08:14 | 59.82436 | 10.88064 | 14508 ft | 371 kts | 201° |
| 2026-05-08 08:14 | 59.80014 | 10.86222 | 15281 ft | 375 kts | 201° |
| 2026-05-08 08:14 | 59.77595 | 10.84387 | 16026 ft | 380 kts | 201° |
| 2026-05-08 08:15 | 59.75082 | 10.82483 | 16793 ft | 384 kts | 201° |
| 2026-05-08 08:15 | 59.72570 | 10.80582 | 17526 ft | 389 kts | 201° |
| 2026-05-08 08:15 | 59.70056 | 10.78684 | 18230 ft | 395 kts | 201° |
| 2026-05-08 08:15 | 59.67468 | 10.76734 | 18877 ft | 400 kts | 201° |
| 2026-05-08 08:16 | 59.64860 | 10.74774 | 19552 ft | 403 kts | 201° |
| 2026-05-08 08:16 | 59.62232 | 10.72801 | 20258 ft | 405 kts | 201° |
| 2026-05-08 08:16 | 59.59589 | 10.70822 | 20945 ft | 408 kts | 201° |
| 2026-05-08 08:16 | 59.56923 | 10.68825 | 21589 ft | 411 kts | 201° |
| 2026-05-08 08:17 | 59.54237 | 10.66817 | 22205 ft | 415 kts | 201° |
| 2026-05-08 08:17 | 59.51517 | 10.64848 | 22821 ft | 419 kts | 199° |
| 2026-05-08 08:17 | 59.48672 | 10.63455 | 23458 ft | 424 kts | 191° |
| 2026-05-08 08:17 | 59.45733 | 10.62688 | 24043 ft | 428 kts | 186° |
| 2026-05-08 08:18 | 59.42743 | 10.62492 | 24555 ft | 432 kts | 182° |
| 2026-05-08 08:18 | 59.39727 | 10.62357 | 25059 ft | 435 kts | 183° |
| 2026-05-08 08:18 | 59.36689 | 10.62196 | 25560 ft | 439 kts | 183° |
| 2026-05-08 08:18 | 59.33629 | 10.62021 | 26045 ft | 442 kts | 183° |
| 2026-05-08 08:19 | 59.30539 | 10.61838 | 26427 ft | 445 kts | 183° |
| 2026-05-08 08:19 | 59.27436 | 10.61650 | 26909 ft | 449 kts | 183° |
| 2026-05-08 08:19 | 59.24301 | 10.61458 | 27385 ft | 452 kts | 183° |
| 2026-05-08 08:19 | 59.21149 | 10.61266 | 27843 ft | 455 kts | 183° |
| 2026-05-08 08:20 | 59.17985 | 10.61074 | 28296 ft | 458 kts | 183° |
| 2026-05-08 08:20 | 59.14786 | 10.60878 | 28747 ft | 461 kts | 182° |
| 2026-05-08 08:20 | 59.11566 | 10.60681 | 29170 ft | 464 kts | 182° |
| 2026-05-08 08:20 | 59.08326 | 10.60484 | 29587 ft | 467 kts | 182° |
| 2026-05-08 08:21 | 59.05070 | 10.60287 | 30157 ft | 468 kts | 182° |
| 2026-05-08 08:21 | 59.01825 | 10.60090 | 30709 ft | 465 kts | 182° |
| 2026-05-08 08:21 | 58.98604 | 10.59896 | 31293 ft | 461 kts | 182° |
| 2026-05-08 08:21 | 58.95411 | 10.59704 | 31889 ft | 457 kts | 182° |
| 2026-05-08 08:22 | 58.92242 | 10.59511 | 32398 ft | 454 kts | 182° |
| 2026-05-08 08:22 | 58.89091 | 10.59322 | 32921 ft | 452 kts | 182° |
| 2026-05-08 08:22 | 58.85957 | 10.59135 | 33380 ft | 450 kts | 182° |
| 2026-05-08 08:22 | 58.82831 | 10.58950 | 33791 ft | 449 kts | 182° |
| 2026-05-08 08:23 | 58.79709 | 10.58763 | 34226 ft | 447 kts | 182° |
| 2026-05-08 08:23 | 58.76605 | 10.58577 | 34612 ft | 446 kts | 182° |
| 2026-05-08 08:23 | 58.73503 | 10.58391 | 34865 ft | 447 kts | 182° |
| 2026-05-08 08:23 | 58.70386 | 10.58205 | 35085 ft | 449 kts | 182° |
| 2026-05-08 08:24 | 58.67252 | 10.58017 | 35200 ft | 453 kts | 182° |
| 2026-05-08 08:24 | 58.60934 | 10.57640 | 35272 ft | 453 kts | 182° |
| 2026-05-08 08:25 | 58.54712 | 10.57275 | 35267 ft | 448 kts | 182° |
| 2026-05-08 08:25 | 58.48473 | 10.56920 | 35271 ft | 449 kts | 182° |
| 2026-05-08 08:26 | 58.42229 | 10.56549 | 35271 ft | 449 kts | 182° |
| 2026-05-08 08:26 | 58.35976 | 10.56179 | 35271 ft | 450 kts | 182° |
| 2026-05-08 08:27 | 58.29717 | 10.55814 | 35269 ft | 450 kts | 182° |
| 2026-05-08 08:27 | 58.23456 | 10.55457 | 35251 ft | 450 kts | 182° |
| 2026-05-08 08:28 | 58.17188 | 10.55090 | 35270 ft | 451 kts | 182° |
| 2026-05-08 08:28 | 58.10907 | 10.54727 | 35271 ft | 452 kts | 182° |
| 2026-05-08 08:29 | 58.04970 | 10.54387 | 35270 ft | 453 kts | 182° |
| 2026-05-08 08:29 | 57.98778 | 10.54018 | 35262 ft | 453 kts | 182° |
| 2026-05-08 08:30 | 57.92474 | 10.53656 | 35263 ft | 454 kts | 181° |
| 2026-05-08 08:30 | 57.83006 | 10.53159 | 35270 ft | 454 kts | 181° |
| 2026-05-08 08:31 | 57.76691 | 10.52795 | 35274 ft | 454 kts | 182° |
| 2026-05-08 08:31 | 57.70365 | 10.52432 | 35266 ft | 455 kts | 181° |
| 2026-05-08 08:32 | 57.64035 | 10.52073 | 35266 ft | 455 kts | 181° |
| 2026-05-08 08:32 | 57.57697 | 10.51717 | 35270 ft | 455 kts | 181° |
| 2026-05-08 08:33 | 57.51362 | 10.51365 | 35267 ft | 455 kts | 181° |
| 2026-05-08 08:33 | 57.45036 | 10.51015 | 35260 ft | 455 kts | 181° |
| 2026-05-08 08:34 | 57.38717 | 10.50668 | 35261 ft | 455 kts | 181° |
| 2026-05-08 08:34 | 57.32385 | 10.50317 | 35262 ft | 455 kts | 181° |
| 2026-05-08 08:35 | 57.26047 | 10.49969 | 35260 ft | 456 kts | 181° |
| 2026-05-08 08:35 | 57.19711 | 10.49620 | 35274 ft | 456 kts | 181° |
| 2026-05-08 08:36 | 57.13365 | 10.49274 | 35268 ft | 456 kts | 181° |
| 2026-05-08 08:36 | 57.07017 | 10.48928 | 35267 ft | 457 kts | 181° |
| 2026-05-08 08:37 | 57.00669 | 10.48584 | 35263 ft | 456 kts | 181° |
| 2026-05-08 08:37 | 56.94357 | 10.48246 | 35263 ft | 457 kts | 181° |
| 2026-05-08 08:38 | 56.88006 | 10.47907 | 35264 ft | 457 kts | 181° |
| 2026-05-08 08:38 | 56.81609 | 10.47553 | 35260 ft | 457 kts | 181° |
| 2026-05-08 08:39 | 56.75249 | 10.47222 | 35266 ft | 458 kts | 181° |
| 2026-05-08 08:39 | 56.68923 | 10.46887 | 35262 ft | 458 kts | 181° |
| 2026-05-08 08:40 | 56.62552 | 10.46546 | 35262 ft | 458 kts | 181° |
| 2026-05-08 08:40 | 56.56134 | 10.46208 | 35263 ft | 458 kts | 181° |
| 2026-05-08 08:41 | 56.49796 | 10.45872 | 35254 ft | 459 kts | 181° |
| 2026-05-08 08:41 | 56.43411 | 10.45536 | 35273 ft | 461 kts | 181° |
| 2026-05-08 08:42 | 56.36927 | 10.45198 | 35281 ft | 471 kts | 180° |
| 2026-05-08 08:42 | 56.30316 | 10.44855 | 35276 ft | 479 kts | 180° |
| 2026-05-08 08:43 | 56.23654 | 10.44507 | 35257 ft | 479 kts | 180° |
| 2026-05-08 08:43 | 56.16998 | 10.44161 | 35262 ft | 478 kts | 180° |
| 2026-05-08 08:44 | 56.10351 | 10.43817 | 35258 ft | 478 kts | 180° |
| 2026-05-08 08:44 | 56.03716 | 10.43474 | 35259 ft | 477 kts | 180° |
| 2026-05-08 08:45 | 55.98163 | 10.43191 | 35262 ft | 476 kts | 180° |
| 2026-05-08 08:45 | 55.91540 | 10.42853 | 35256 ft | 476 kts | 180° |
| 2026-05-08 08:46 | 55.84921 | 10.42513 | 35260 ft | 476 kts | 181° |
| 2026-05-08 08:46 | 55.78301 | 10.42177 | 35261 ft | 476 kts | 181° |
| 2026-05-08 08:47 | 55.71674 | 10.41844 | 35264 ft | 476 kts | 181° |
| 2026-05-08 08:47 | 55.65090 | 10.41512 | 35264 ft | 477 kts | 181° |
| 2026-05-08 08:48 | 55.58459 | 10.41178 | 35261 ft | 477 kts | 181° |
| 2026-05-08 08:48 | 55.51825 | 10.40847 | 35244 ft | 477 kts | 181° |
| 2026-05-08 08:49 | 55.45183 | 10.40515 | 35242 ft | 478 kts | 181° |
| 2026-05-08 08:49 | 55.38539 | 10.40185 | 35244 ft | 478 kts | 180° |
| 2026-05-08 08:50 | 55.31892 | 10.39856 | 35249 ft | 478 kts | 181° |
| 2026-05-08 08:50 | 55.25253 | 10.39525 | 35247 ft | 478 kts | 181° |
| 2026-05-08 08:51 | 55.18604 | 10.39201 | 35258 ft | 478 kts | 181° |
| 2026-05-08 08:51 | 55.11949 | 10.38875 | 35261 ft | 478 kts | 181° |
| 2026-05-08 08:52 | 55.05303 | 10.38541 | 35263 ft | 478 kts | 181° |
| 2026-05-08 08:52 | 54.98654 | 10.38222 | 35251 ft | 478 kts | 181° |
| 2026-05-08 08:53 | 54.92005 | 10.37907 | 35250 ft | 478 kts | 181° |
| 2026-05-08 08:53 | 54.85355 | 10.37581 | 35255 ft | 479 kts | 181° |
| 2026-05-08 08:54 | 54.78691 | 10.37254 | 35243 ft | 479 kts | 182° |
| 2026-05-08 08:54 | 54.72027 | 10.36943 | 35245 ft | 479 kts | 182° |
| 2026-05-08 08:55 | 54.65355 | 10.36617 | 35249 ft | 480 kts | 182° |
| 2026-05-08 08:55 | 54.58675 | 10.36294 | 35241 ft | 480 kts | 182° |
| 2026-05-08 08:56 | 54.52003 | 10.35955 | 35250 ft | 479 kts | 182° |
| 2026-05-08 08:56 | 54.45375 | 10.35656 | 35247 ft | 480 kts | 182° |
| 2026-05-08 08:57 | 54.38690 | 10.35356 | 35242 ft | 481 kts | 182° |
| 2026-05-08 08:57 | 54.31994 | 10.35038 | 35240 ft | 482 kts | 182° |
| 2026-05-08 08:58 | 54.25288 | 10.34707 | 35234 ft | 482 kts | 182° |
| 2026-05-08 08:58 | 54.18576 | 10.34400 | 35235 ft | 483 kts | 182° |
| 2026-05-08 08:59 | 54.11860 | 10.34089 | 35234 ft | 483 kts | 182° |
| 2026-05-08 08:59 | 54.05146 | 10.33776 | 35227 ft | 483 kts | 182° |
| 2026-05-08 09:00 | 53.98432 | 10.33461 | 35232 ft | 483 kts | 183° |
| 2026-05-08 09:00 | 53.91721 | 10.33150 | 35230 ft | 483 kts | 183° |
| 2026-05-08 09:01 | 53.85005 | 10.32841 | 35231 ft | 482 kts | 183° |
| 2026-05-08 09:01 | 53.78293 | 10.32533 | 35220 ft | 482 kts | 183° |
| 2026-05-08 09:02 | 53.71582 | 10.32226 | 35225 ft | 483 kts | 183° |
| 2026-05-08 09:02 | 53.67875 | 10.32057 | 35220 ft | 483 kts | 183° |
| 2026-05-08 09:03 | 53.61522 | 10.31770 | 35224 ft | 483 kts | 183° |
| 2026-05-08 09:03 | 53.54798 | 10.31460 | 35200 ft | 484 kts | 183° |
| 2026-05-08 09:04 | 53.48115 | 10.31150 | 35210 ft | 484 kts | 183° |
| 2026-05-08 09:04 | 53.41379 | 10.30846 | 35205 ft | 484 kts | 183° |
| 2026-05-08 09:05 | 53.34640 | 10.30555 | 35208 ft | 485 kts | 183° |
| 2026-05-08 09:05 | 53.27894 | 10.30252 | 35179 ft | 485 kts | 184° |
| 2026-05-08 09:06 | 53.21140 | 10.29946 | 35191 ft | 486 kts | 184° |
| 2026-05-08 09:06 | 53.14376 | 10.29641 | 35192 ft | 486 kts | 184° |
| 2026-05-08 09:07 | 53.07602 | 10.29339 | 35187 ft | 487 kts | 184° |
| 2026-05-08 09:07 | 53.00829 | 10.29038 | 35187 ft | 487 kts | 184° |
| 2026-05-08 09:08 | 52.94089 | 10.28183 | 35183 ft | 484 kts | 192° |
| 2026-05-08 09:08 | 52.87470 | 10.26111 | 35183 ft | 485 kts | 193° |
| 2026-05-08 09:09 | 52.80833 | 10.24059 | 35182 ft | 485 kts | 192° |
| 2026-05-08 09:09 | 52.77469 | 10.23042 | 35184 ft | 486 kts | 192° |
| 2026-05-08 09:10 | 52.70803 | 10.21057 | 35186 ft | 487 kts | 192° |
| 2026-05-08 09:10 | 52.64169 | 10.19101 | 35186 ft | 488 kts | 192° |
| 2026-05-08 09:11 | 52.57447 | 10.17124 | 35184 ft | 488 kts | 192° |
| 2026-05-08 09:11 | 52.50807 | 10.15174 | 35178 ft | 488 kts | 192° |
| 2026-05-08 09:12 | 52.44132 | 10.13219 | 35185 ft | 487 kts | 192° |
| 2026-05-08 09:12 | 52.37450 | 10.11269 | 35179 ft | 488 kts | 192° |
| 2026-05-08 09:13 | 52.30767 | 10.09324 | 35173 ft | 487 kts | 192° |
| 2026-05-08 09:13 | 52.24096 | 10.07390 | 35178 ft | 487 kts | 192° |
| 2026-05-08 09:14 | 52.17422 | 10.05458 | 35177 ft | 487 kts | 192° |
| 2026-05-08 09:14 | 52.10749 | 10.03535 | 35173 ft | 487 kts | 192° |
| 2026-05-08 09:15 | 52.04084 | 10.01618 | 35170 ft | 487 kts | 192° |
| 2026-05-08 09:15 | 51.97414 | 9.99707 | 35170 ft | 486 kts | 192° |
| 2026-05-08 09:16 | 51.90754 | 9.97804 | 35166 ft | 486 kts | 192° |
| 2026-05-08 09:16 | 51.84103 | 9.95909 | 35165 ft | 485 kts | 192° |
| 2026-05-08 09:17 | 51.77460 | 9.94021 | 35168 ft | 484 kts | 192° |
| 2026-05-08 09:17 | 51.70818 | 9.92140 | 35164 ft | 484 kts | 192° |
| 2026-05-08 09:18 | 51.64192 | 9.90267 | 35171 ft | 483 kts | 192° |
| 2026-05-08 09:18 | 51.57564 | 9.88404 | 35162 ft | 483 kts | 192° |
| 2026-05-08 09:19 | 51.50995 | 9.86565 | 35157 ft | 483 kts | 192° |
| 2026-05-08 09:19 | 51.44376 | 9.84709 | 35160 ft | 483 kts | 192° |
| 2026-05-08 09:20 | 51.37750 | 9.82856 | 35151 ft | 484 kts | 192° |
| 2026-05-08 09:20 | 51.31120 | 9.81013 | 35164 ft | 484 kts | 192° |
| 2026-05-08 09:21 | 51.24491 | 9.79175 | 35147 ft | 483 kts | 192° |
| 2026-05-08 09:23 | 51.01324 | 9.72789 | 35153 ft | 482 kts | 192° |
| 2026-05-08 09:23 | 50.94720 | 9.70982 | 35152 ft | 482 kts | 192° |
| 2026-05-08 09:24 | 50.88143 | 9.69186 | 34930 ft | 477 kts | 192° |
| 2026-05-08 09:24 | 50.84875 | 9.68297 | 34596 ft | 477 kts | 192° |
| 2026-05-08 09:24 | 50.81611 | 9.67409 | 34330 ft | 475 kts | 192° |
| 2026-05-08 09:24 | 50.78356 | 9.66526 | 34111 ft | 473 kts | 192° |
| 2026-05-08 09:25 | 50.75126 | 9.65650 | 33867 ft | 470 kts | 192° |
| 2026-05-08 09:25 | 50.71918 | 9.64780 | 33607 ft | 467 kts | 192° |
| 2026-05-08 09:25 | 50.68721 | 9.63915 | 33347 ft | 465 kts | 192° |
| 2026-05-08 09:25 | 50.65531 | 9.63051 | 33021 ft | 465 kts | 192° |
| 2026-05-08 09:26 | 50.62346 | 9.62189 | 32521 ft | 464 kts | 192° |
| 2026-05-08 09:26 | 50.59169 | 9.61334 | 31964 ft | 462 kts | 192° |
| 2026-05-08 09:26 | 50.56013 | 9.60487 | 31364 ft | 459 kts | 192° |
| 2026-05-08 09:26 | 50.52910 | 9.59534 | 30809 ft | 449 kts | 199° |
| 2026-05-08 09:27 | 50.50119 | 9.57487 | 30297 ft | 439 kts | 217° |
| 2026-05-08 09:27 | 50.47905 | 9.54273 | 29803 ft | 430 kts | 231° |
| 2026-05-08 09:27 | 50.46197 | 9.50473 | 29302 ft | 424 kts | 242° |
| 2026-05-08 09:27 | 50.45077 | 9.46227 | 28776 ft | 419 kts | 254° |
| 2026-05-08 09:28 | 50.44335 | 9.41838 | 28308 ft | 415 kts | 255° |
| 2026-05-08 09:28 | 50.43572 | 9.37468 | 27825 ft | 415 kts | 254° |
| 2026-05-08 09:28 | 50.42764 | 9.33111 | 27368 ft | 417 kts | 253° |
| 2026-05-08 09:28 | 50.41888 | 9.28789 | 26852 ft | 413 kts | 247° |
| 2026-05-08 09:29 | 50.40399 | 9.24952 | 26352 ft | 413 kts | 230° |
| 2026-05-08 09:29 | 50.38299 | 9.21917 | 25893 ft | 412 kts | 216° |
| 2026-05-08 09:29 | 50.35857 | 9.19603 | 25431 ft | 409 kts | 212° |
| 2026-05-08 09:29 | 50.33419 | 9.17355 | 24985 ft | 405 kts | 213° |
| 2026-05-08 09:30 | 50.31051 | 9.15103 | 24521 ft | 402 kts | 213° |
| 2026-05-08 09:30 | 50.28697 | 9.12707 | 24027 ft | 394 kts | 221° |
| 2026-05-08 09:30 | 50.26876 | 9.09564 | 23566 ft | 389 kts | 238° |
| 2026-05-08 09:30 | 50.25721 | 9.05794 | 23060 ft | 383 kts | 251° |
| 2026-05-08 09:31 | 50.24844 | 9.01956 | 22600 ft | 379 kts | 251° |
| 2026-05-08 09:31 | 50.23969 | 8.98086 | 22174 ft | 376 kts | 251° |
| 2026-05-08 09:31 | 50.23095 | 8.94243 | 21753 ft | 375 kts | 251° |
| 2026-05-08 09:31 | 50.22214 | 8.90406 | 21344 ft | 376 kts | 251° |
| 2026-05-08 09:32 | 50.21322 | 8.86562 | 20939 ft | 377 kts | 250° |
| 2026-05-08 09:32 | 50.20422 | 8.82713 | 20497 ft | 377 kts | 250° |
| 2026-05-08 09:32 | 50.19520 | 8.78873 | 20046 ft | 377 kts | 250° |
| 2026-05-08 09:32 | 50.18616 | 8.75041 | 19586 ft | 373 kts | 250° |
| 2026-05-08 09:33 | 50.17732 | 8.71311 | 19079 ft | 361 kts | 250° |
| 2026-05-08 09:33 | 50.16874 | 8.67695 | 18641 ft | 353 kts | 250° |
| 2026-05-08 09:33 | 50.16024 | 8.64121 | 18274 ft | 351 kts | 250° |
| 2026-05-08 09:33 | 50.15174 | 8.60546 | 17810 ft | 350 kts | 250° |
| 2026-05-08 09:34 | 50.14615 | 8.58196 | 17533 ft | 348 kts | 250° |
| 2026-05-08 09:34 | 50.13777 | 8.54679 | 17138 ft | 344 kts | 250° |
| 2026-05-08 09:34 | 50.12947 | 8.51199 | 16742 ft | 342 kts | 250° |
| 2026-05-08 09:34 | 50.12120 | 8.47742 | 16331 ft | 339 kts | 250° |
| 2026-05-08 09:35 | 50.11300 | 8.44320 | 15942 ft | 336 kts | 250° |
| 2026-05-08 09:35 | 50.10483 | 8.40931 | 15540 ft | 333 kts | 250° |
| 2026-05-08 09:35 | 50.09669 | 8.37568 | 15155 ft | 330 kts | 250° |
| 2026-05-08 09:35 | 50.08861 | 8.34239 | 14782 ft | 327 kts | 250° |
| 2026-05-08 09:36 | 50.08060 | 8.30932 | 14396 ft | 325 kts | 250° |
| 2026-05-08 09:36 | 50.07262 | 8.27644 | 14003 ft | 324 kts | 249° |
| 2026-05-08 09:36 | 50.06469 | 8.24378 | 13603 ft | 321 kts | 249° |
| 2026-05-08 09:36 | 50.05683 | 8.21148 | 13216 ft | 318 kts | 249° |
| 2026-05-08 09:37 | 50.04904 | 8.17946 | 12827 ft | 315 kts | 249° |
| 2026-05-08 09:37 | 50.04132 | 8.14780 | 12454 ft | 311 kts | 249° |
| 2026-05-08 09:37 | 50.03367 | 8.11654 | 12091 ft | 308 kts | 249° |
| 2026-05-08 09:37 | 50.02611 | 8.08561 | 11716 ft | 306 kts | 249° |
| 2026-05-08 09:38 | 50.01849 | 8.05437 | 11257 ft | 310 kts | 249° |
| 2026-05-08 09:38 | 50.01085 | 8.02308 | 10749 ft | 308 kts | 249° |
| 2026-05-08 09:38 | 50.00333 | 7.99229 | 10163 ft | 300 kts | 248° |
| 2026-05-08 09:38 | 49.99609 | 7.96272 | 9541 ft | 287 kts | 248° |
| 2026-05-08 09:39 | 49.98911 | 7.93436 | 8932 ft | 275 kts | 248° |
| 2026-05-08 09:39 | 49.97948 | 7.90984 | 8281 ft | 263 kts | 220° |
| 2026-05-08 09:39 | 49.96310 | 7.89768 | 7733 ft | 264 kts | 193° |
| 2026-05-08 09:39 | 49.94509 | 7.89375 | 7323 ft | 260 kts | 177° |
| 2026-05-08 09:40 | 49.92796 | 7.90125 | 7197 ft | 258 kts | 150° |
| 2026-05-08 09:40 | 49.91510 | 7.92055 | 7103 ft | 263 kts | 120° |
| 2026-05-08 09:40 | 49.91013 | 7.94773 | 7024 ft | 267 kts | 90° |
| 2026-05-08 09:40 | 49.91298 | 7.97611 | 6951 ft | 267 kts | 75° |
| 2026-05-08 09:41 | 49.91855 | 8.00363 | 6854 ft | 268 kts | 71° |
| 2026-05-08 09:41 | 49.92499 | 8.03089 | 6764 ft | 269 kts | 70° |
| 2026-05-08 09:41 | 49.93160 | 8.05806 | 6607 ft | 270 kts | 70° |
| 2026-05-08 09:41 | 49.93818 | 8.08517 | 6219 ft | 262 kts | 70° |
| 2026-05-08 09:42 | 49.94439 | 8.11085 | 5849 ft | 247 kts | 70° |
| 2026-05-08 09:42 | 49.95029 | 8.13532 | 5509 ft | 239 kts | 70° |
| 2026-05-08 09:42 | 49.95604 | 8.15931 | 5191 ft | 236 kts | 70° |
| 2026-05-08 09:42 | 49.96173 | 8.18307 | 4846 ft | 233 kts | 70° |
| 2026-05-08 09:43 | 49.96737 | 8.20649 | 4514 ft | 230 kts | 70° |
| 2026-05-08 09:43 | 49.97294 | 8.22960 | 4170 ft | 228 kts | 70° |
| 2026-05-08 09:43 | 49.97847 | 8.25267 | 3856 ft | 228 kts | 70° |
| 2026-05-08 09:43 | 49.98398 | 8.27570 | 3524 ft | 227 kts | 70° |
| 2026-05-08 09:44 | 49.98936 | 8.29803 | 3187 ft | 220 kts | 70° |
| 2026-05-08 09:44 | 49.99465 | 8.32014 | 2874 ft | 212 kts | 70° |
| 2026-05-08 09:44 | 49.99969 | 8.34128 | 2579 ft | 206 kts | 70° |
| 2026-05-08 09:44 | 50.00465 | 8.36186 | 2295 ft | 206 kts | 69° |
| 2026-05-08 09:45 | 50.00958 | 8.38248 | 1994 ft | 201 kts | 69° |
| 2026-05-08 09:45 | 50.01436 | 8.40241 | 1722 ft | 191 kts | 69° |
| 2026-05-08 09:45 | 50.01887 | 8.42116 | 1421 ft | 177 kts | 70° |
| 2026-05-08 09:45 | 50.02298 | 8.43833 | 1170 ft | 160 kts | 70° |
| 2026-05-08 09:46 | 50.02669 | 8.45390 | 952 ft | 149 kts | 69° |
| 2026-05-08 09:46 | 50.03035 | 8.46914 | 775 ft | 152 kts | 69° |
| 2026-05-08 09:46 | 50.03402 | 8.48468 | 523 ft | 153 kts | 69° |
| 2026-05-08 09:46 | 50.03769 | 8.49979 | 331 ft | 143 kts | 69° |
| 2026-05-08 09:47 | 50.04080 | 8.51261 | 331 ft | 104 kts | 69° |
| 2026-05-08 09:47 | 50.04265 | 8.52041 | 347 ft | 50 kts | 70° |
| 2026-05-08 09:47 | 50.04358 | 8.52439 | 357 ft | 35 kts | 70° |
| 2026-05-08 09:47 | 50.04393 | 8.52769 | 358 ft | 25 kts | 92° |
| 2026-05-08 09:48 | 50.04372 | 8.53007 | 363 ft | 21 kts | 99° |
| 2026-05-08 09:48 | 50.04352 | 8.53233 | 366 ft | 21 kts | 91° |
| 2026-05-08 09:48 | 50.04386 | 8.53454 | 380 ft | 21 kts | 72° |
| 2026-05-08 09:48 | 50.04405 | 8.53680 | 380 ft | 21 kts | 86° |
| 2026-05-08 09:49 | 50.04420 | 8.53907 | 380 ft | 21 kts | 83° |
| 2026-05-08 09:49 | 50.04437 | 8.54134 | 380 ft | 21 kts | 83° |
| 2026-05-08 09:49 | 50.04454 | 8.54360 | 378 ft | 21 kts | 85° |
| 2026-05-08 09:49 | 50.04431 | 8.54589 | 374 ft | 22 kts | 115° |
| 2026-05-08 09:50 | 50.04327 | 8.54762 | 365 ft | 22 kts | 150° |
| 2026-05-08 09:50 | 50.04198 | 8.54840 | 364 ft | 19 kts | 160° |
| 2026-05-08 09:50 | 50.04096 | 8.54897 | 362 ft | 11 kts | 160° |
| 2026-05-08 09:50 | 50.04039 | 8.54928 | 363 ft | 6 kts | 162° |
| 2026-05-08 09:51 | 50.03999 | 8.54903 | 356 ft | 7 kts | 226° |
| 2026-05-08 09:51 | 50.03971 | 8.54824 | 362 ft | 9 kts | 247° |
| 2026-05-08 09:51 | 50.03961 | 8.54724 | 362 ft | 10 kts | 290° |
| 2026-05-08 09:51 | 50.04023 | 8.54664 | 356 ft | 11 kts | 339° |
| 2026-05-08 09:52 | 50.04074 | 8.54634 | 362 ft | 5 kts | 340° |
| 2026-05-08 09:52 | 50.04089 | 8.54606 | 363 ft | 4 kts | 281° |
| 2026-05-08 09:52 | 50.04080 | 8.54567 | 361 ft | 4 kts | 249° |
| 2026-05-08 09:52 | 50.04071 | 8.54528 | 361 ft | 3 kts | 250° |
| 2026-05-08 09:53 | 50.04068 | 8.54516 | 354 ft | 0 kts | 250° |